createdAt,value
2019-01-04T00:02:04.980Z,13.70
2019-01-04T00:04:34.618Z,13.70
2019-01-04T00:07:04.550Z,13.60
2019-01-04T00:09:34.258Z,13.80
2019-01-04T00:12:04.112Z,13.70
2019-01-04T00:14:34.022Z,13.20
2019-01-04T00:17:03.862Z,13.60
2019-01-04T00:19:33.584Z,13.50
2019-01-04T00:22:03.308Z,13.50
2019-01-04T00:24:33.946Z,13.50
2019-01-04T00:27:03.800Z,14.20
2019-01-04T00:29:33.720Z,13.40
2019-01-04T00:32:03.437Z,13.40
2019-01-04T00:34:33.364Z,13.40
2019-01-04T00:37:04.455Z,13.30
2019-01-04T00:39:34.065Z,13.50
2019-01-04T00:42:03.882Z,13.30
2019-01-04T00:44:33.715Z,13.80
2019-01-04T00:47:03.491Z,13.30
2019-01-04T00:49:33.272Z,13.90
2019-01-04T00:52:03.200Z,13.30
2019-01-04T00:54:33.143Z,14.00
2019-01-04T00:57:23.155Z,13.60
2019-01-04T01:00:38.801Z,13.20
2019-01-04T01:04:10.568Z,13.10
2019-01-04T01:07:35.653Z,13.20
2019-01-04T01:10:40.694Z,13.10
2019-01-04T01:14:06.590Z,13.10
2019-01-04T01:17:16.025Z,13.30
2019-01-04T01:20:18.942Z,13.20
2019-01-04T01:23:24.360Z,13.10
2019-01-04T01:26:22.130Z,13.00
2019-01-04T01:29:24.087Z,13.00
2019-01-04T01:32:29.539Z,12.90
2019-01-04T01:35:27.442Z,12.90
2019-01-04T01:38:33.574Z,12.90
2019-01-04T01:42:06.733Z,12.90
2019-01-04T01:45:15.228Z,13.10
2019-01-04T01:47:51.449Z,13.00
2019-01-04T01:51:03.815Z,12.90
2019-01-04T01:53:44.640Z,12.90
2019-01-04T01:56:14.339Z,13.00
2019-01-04T01:58:44.188Z,13.00
2019-01-04T02:01:14.148Z,13.40
2019-01-04T02:03:43.855Z,13.00
2019-01-04T02:06:13.660Z,12.80
2019-01-04T02:08:43.630Z,12.80
2019-01-04T02:11:13.620Z,12.80
2019-01-04T02:13:43.253Z,12.80
2019-01-04T02:16:12.892Z,12.80
2019-01-04T02:18:42.727Z,12.40
2019-01-04T02:21:12.538Z,12.80
2019-01-04T02:23:42.268Z,12.80
2019-01-04T02:26:13.180Z,12.80
2019-01-04T02:28:42.631Z,12.80
2019-01-04T02:31:31.209Z,12.80
2019-01-04T02:34:03.167Z,12.80
2019-01-04T02:36:33.119Z,12.80
2019-01-04T02:39:03.740Z,12.70
2019-01-04T02:41:33.413Z,12.80
2019-01-04T02:44:03.191Z,12.80
2019-01-04T02:46:33.032Z,12.60
2019-01-04T02:49:02.854Z,12.50
2019-01-04T02:51:35.105Z,12.60
2019-01-04T02:54:04.969Z,12.60
2019-01-04T02:56:39.136Z,12.50
2019-01-04T02:59:08.805Z,12.50
2019-01-04T03:01:38.575Z,12.40
2019-01-04T03:04:08.177Z,12.40
2019-01-04T03:06:39.326Z,12.50
2019-01-04T03:09:09.050Z,12.30
2019-01-04T03:11:38.819Z,12.40
2019-01-04T03:14:10.969Z,12.30
2019-01-04T03:16:40.805Z,12.40
2019-01-04T03:19:10.411Z,12.30
2019-01-04T03:21:40.363Z,12.40
2019-01-04T03:24:10.082Z,12.30
2019-01-04T03:26:39.837Z,12.30
2019-01-04T03:29:09.440Z,12.30
2019-01-04T03:31:39.377Z,12.30
2019-01-04T03:34:09.214Z,12.30
2019-01-04T03:36:40.355Z,12.30
2019-01-04T03:39:09.867Z,12.40
2019-01-04T03:41:39.628Z,12.20
2019-01-04T03:44:09.542Z,12.20
2019-01-04T03:46:39.381Z,12.30
2019-01-04T03:49:09.293Z,12.20
2019-01-04T03:51:39.037Z,12.30
2019-01-04T03:54:09.857Z,12.40
2019-01-04T03:56:39.746Z,12.40
2019-01-04T03:59:09.648Z,12.50
2019-01-04T04:01:39.594Z,12.50
2019-01-04T04:04:10.292Z,12.50
2019-01-04T04:06:40.172Z,12.50
2019-01-04T04:09:10.097Z,12.40
2019-01-04T04:11:39.723Z,12.50
2019-01-04T04:14:09.444Z,13.10
2019-01-04T04:16:39.262Z,12.70
2019-01-04T04:19:16.479Z,12.90
2019-01-04T04:21:46.314Z,12.70
2019-01-04T04:24:17.369Z,12.70
2019-01-04T04:26:47.081Z,11.00
2019-01-04T04:29:16.906Z,11.50
2019-01-04T04:31:46.537Z,12.10
2019-01-04T04:34:16.356Z,12.50
2019-01-04T04:36:46.187Z,12.60
2019-01-04T04:39:15.931Z,12.50
2019-01-04T04:41:46.655Z,12.80
2019-01-04T04:44:16.323Z,12.80
2019-01-04T04:46:46.249Z,12.80
2019-01-04T04:49:15.976Z,12.80
2019-01-04T04:51:45.807Z,12.90
2019-01-04T04:54:15.619Z,12.90
2019-01-04T04:56:47.112Z,12.90
2019-01-04T04:59:16.702Z,13.00
2019-01-04T05:01:46.535Z,12.90
2019-01-04T05:04:16.363Z,13.50
2019-01-04T05:06:46.193Z,7.80
2019-01-04T05:09:16.026Z,7.50
2019-01-04T05:11:45.844Z,6.90
2019-01-04T05:14:15.347Z,7.40
2019-01-04T05:16:44.725Z,7.20
2019-01-04T05:19:14.139Z,6.70
2019-01-04T05:21:43.545Z,6.70
2019-01-04T05:24:12.945Z,6.80
2019-01-04T05:26:42.350Z,7.00
2019-01-04T05:29:11.753Z,6.70
2019-01-04T05:31:41.138Z,6.80
2019-01-04T05:34:10.524Z,6.80
2019-01-04T05:36:39.911Z,6.80
2019-01-04T05:39:09.284Z,6.20
2019-01-04T05:41:38.758Z,6.40
2019-01-04T05:44:08.144Z,6.30
2019-01-04T05:46:37.536Z,6.10
2019-01-04T05:49:06.912Z,5.80
2019-01-04T05:51:38.543Z,6.30
2019-01-04T05:54:07.928Z,5.70
2019-01-04T05:56:37.317Z,5.80
2019-01-04T05:59:06.765Z,6.60
2019-01-04T06:01:36.095Z,5.90
2019-01-04T06:04:05.513Z,6.10
2019-01-04T06:06:34.923Z,6.10
2019-01-04T06:09:05.898Z,5.90
2019-01-04T06:11:35.284Z,5.90
2019-01-04T06:14:04.685Z,5.80
2019-01-04T06:16:34.078Z,6.00
2019-01-04T06:19:03.480Z,6.30
2019-01-04T06:21:32.867Z,5.60
2019-01-04T06:24:02.270Z,6.10
2019-01-04T06:26:31.681Z,6.00
2019-01-04T06:29:01.072Z,6.00
2019-01-04T06:31:30.460Z,5.60
2019-01-04T06:33:59.860Z,6.00
2019-01-04T06:36:29.264Z,5.80
2019-01-04T06:38:58.685Z,5.80
2019-01-04T06:41:28.068Z,5.80
2019-01-04T06:43:57.458Z,5.80
2019-01-04T06:46:26.849Z,5.50
2019-01-04T06:48:56.489Z,5.90
2019-01-04T06:51:27.991Z,5.60
2019-01-04T06:53:56.925Z,5.80
2019-01-04T06:56:26.315Z,5.50
2019-01-04T06:58:55.739Z,5.40
2019-01-04T07:01:25.144Z,5.70
2019-01-04T07:03:54.576Z,5.60
2019-01-04T07:06:24.079Z,5.60
2019-01-04T07:08:53.593Z,5.60
2019-01-04T07:11:23.008Z,5.50
2019-01-04T07:13:52.417Z,5.40
2019-01-04T07:16:21.831Z,5.60
2019-01-04T07:18:51.228Z,5.50
2019-01-04T07:21:20.642Z,5.40
2019-01-04T07:23:50.042Z,5.60
2019-01-04T07:26:19.441Z,5.70
2019-01-04T07:28:48.850Z,5.50
2019-01-04T07:31:18.225Z,5.50
2019-01-04T07:33:47.632Z,5.30
2019-01-04T07:36:17.059Z,5.60
2019-01-04T07:38:46.443Z,5.90
2019-01-04T07:41:15.860Z,5.90
2019-01-04T07:43:45.272Z,5.40
2019-01-04T07:46:15.889Z,5.50
2019-01-04T07:48:45.267Z,5.40
2019-01-04T07:51:14.663Z,5.30
2019-01-04T07:53:45.377Z,5.50
2019-01-04T07:56:14.789Z,5.40
2019-01-04T07:58:44.163Z,5.50
2019-01-04T08:01:13.564Z,5.50
2019-01-04T08:03:42.955Z,5.40
2019-01-04T08:06:12.342Z,5.20
2019-01-04T08:08:41.752Z,5.50
2019-01-04T08:11:11.146Z,5.20
2019-01-04T08:13:40.530Z,5.20
2019-01-04T08:16:11.169Z,5.30
2019-01-04T08:18:40.569Z,5.20
2019-01-04T08:21:09.952Z,5.60
2019-01-04T08:23:39.457Z,5.50
2019-01-04T08:26:08.894Z,5.50
2019-01-04T08:28:38.368Z,5.30
2019-01-04T08:31:08.870Z,5.30
2019-01-04T08:33:38.357Z,5.20
2019-01-04T08:36:08.222Z,5.40
2019-01-04T08:38:37.937Z,5.10
2019-01-04T08:41:07.591Z,5.50
2019-01-04T08:43:36.922Z,5.80
2019-01-04T08:46:06.317Z,5.40
2019-01-04T08:48:37.999Z,5.20
2019-01-04T08:51:07.420Z,5.40
2019-01-04T08:54:02.812Z,5.60
2019-01-04T08:56:34.678Z,5.40
2019-01-04T08:59:05.252Z,5.40
2019-01-04T09:01:35.934Z,5.30
2019-01-04T09:04:05.330Z,5.40
2019-01-04T09:06:34.758Z,5.30
2019-01-04T09:09:07.473Z,5.10
2019-01-04T09:11:36.903Z,5.20
2019-01-04T09:14:06.300Z,5.10
2019-01-04T09:16:35.717Z,5.40
2019-01-04T09:19:05.130Z,4.90
2019-01-04T09:21:34.508Z,5.10
2019-01-04T09:24:03.938Z,5.00
2019-01-04T09:26:33.446Z,5.10
2019-01-04T09:29:04.805Z,5.10
2019-01-04T09:31:33.893Z,5.10
2019-01-04T09:34:03.322Z,4.80
2019-01-04T09:36:34.006Z,5.10
2019-01-04T09:39:03.530Z,5.20
2019-01-04T09:41:35.500Z,5.20
2019-01-04T09:44:04.919Z,5.00
2019-01-04T09:46:34.336Z,5.70
2019-01-04T09:49:03.738Z,5.10
2019-01-04T09:51:33.144Z,5.20
2019-01-04T09:54:02.550Z,5.10
2019-01-04T09:56:31.963Z,5.10
2019-01-04T09:59:01.429Z,5.10
2019-01-04T10:01:30.843Z,5.20
2019-01-04T10:04:01.813Z,5.20
2019-01-04T10:06:33.052Z,5.20
2019-01-04T10:09:06.631Z,5.20
2019-01-04T10:11:37.832Z,5.20
2019-01-04T10:14:07.225Z,5.30
2019-01-04T10:16:36.632Z,5.20
2019-01-04T10:19:06.060Z,5.50
2019-01-04T10:21:35.445Z,5.60
2019-01-04T10:24:04.884Z,5.60
2019-01-04T10:26:34.307Z,5.80
2019-01-04T10:29:05.007Z,5.90
2019-01-04T10:31:34.518Z,5.90
2019-01-04T10:34:03.925Z,6.00
2019-01-04T10:36:33.355Z,6.00
2019-01-04T10:39:02.799Z,6.00
2019-01-04T10:41:32.223Z,6.00
2019-01-04T10:44:01.693Z,6.00
2019-01-04T10:46:31.091Z,6.10
2019-01-04T10:49:00.481Z,5.90
2019-01-04T10:51:29.893Z,6.00
2019-01-04T10:53:59.291Z,6.20
2019-01-04T10:56:28.706Z,6.00
2019-01-04T10:58:58.093Z,6.10
2019-01-04T11:01:27.674Z,6.20
2019-01-04T11:03:57.055Z,6.20
2019-01-04T11:06:26.471Z,5.90
2019-01-04T11:08:55.873Z,5.90
2019-01-04T11:11:25.280Z,5.90
2019-01-04T11:13:54.682Z,6.20
2019-01-04T11:16:24.088Z,6.20
2019-01-04T11:18:53.596Z,6.30
2019-01-04T11:21:23.013Z,6.40
2019-01-04T11:24:42.424Z,6.30
2019-01-04T11:27:39.469Z,6.20
2019-01-04T11:30:49.731Z,6.20
2019-01-04T11:34:00.574Z,6.20
2019-01-04T11:37:06.424Z,6.00
2019-01-04T11:40:14.135Z,6.00
2019-01-04T11:43:06.539Z,5.90
2019-01-04T11:45:55.275Z,6.00
2019-01-04T11:49:18.050Z,5.90
2019-01-04T11:52:15.295Z,6.00
2019-01-04T11:54:44.713Z,5.90
2019-01-04T11:57:14.137Z,5.90
2019-01-04T11:59:43.548Z,5.80
2019-01-04T12:02:12.969Z,6.00
2019-01-04T12:04:42.352Z,6.00
2019-01-04T12:07:11.819Z,6.00
2019-01-04T12:09:41.233Z,6.20
2019-01-04T12:12:10.669Z,6.50
2019-01-04T12:14:41.458Z,6.50
2019-01-04T12:17:11.169Z,6.50
2019-01-04T12:19:40.632Z,6.40
2019-01-04T12:22:10.032Z,6.60
2019-01-04T12:24:40.421Z,6.50
2019-01-04T12:27:11.074Z,6.60
2019-01-04T12:29:40.428Z,6.70
2019-01-04T12:32:09.836Z,6.70
2019-01-04T12:34:39.251Z,6.50
2019-01-04T12:37:08.680Z,6.60
2019-01-04T12:39:38.103Z,6.60
2019-01-04T12:42:07.499Z,6.60
2019-01-04T12:44:36.918Z,6.70
2019-01-04T12:47:06.344Z,6.60
2019-01-04T12:49:35.769Z,6.70
2019-01-04T12:52:05.176Z,6.60
2019-01-04T12:54:35.606Z,6.70
2019-01-04T12:57:05.003Z,6.50
2019-01-04T12:59:34.409Z,6.50
2019-01-04T13:02:03.811Z,6.50
2019-01-04T13:04:33.366Z,6.50
2019-01-04T13:07:04.358Z,6.40
2019-01-04T13:09:33.777Z,7.10
2019-01-04T13:12:04.498Z,6.60
2019-01-04T13:14:33.912Z,6.60
2019-01-04T13:17:03.363Z,6.70
2019-01-04T13:19:32.766Z,6.60
2019-01-04T13:22:02.196Z,6.70
2019-01-04T13:24:31.629Z,6.60
2019-01-04T13:27:01.144Z,6.70
2019-01-04T13:29:30.587Z,6.60
2019-01-04T13:32:00.003Z,7.20
2019-01-04T13:34:29.422Z,6.70
2019-01-04T13:37:00.241Z,6.80
2019-01-04T13:39:29.665Z,6.70
2019-01-04T13:41:59.098Z,6.60
2019-01-04T13:44:29.996Z,6.60
2019-01-04T13:46:59.333Z,6.70
2019-01-04T13:49:28.758Z,6.70
2019-01-04T13:51:58.149Z,6.50
2019-01-04T13:54:27.562Z,6.70
2019-01-04T13:56:56.987Z,6.70
2019-01-04T13:59:26.400Z,6.70
2019-01-04T14:01:55.799Z,6.70
2019-01-04T14:04:25.208Z,6.60
2019-01-04T14:06:54.632Z,6.60
2019-01-04T14:09:24.036Z,6.70
2019-01-04T14:11:56.455Z,7.40
2019-01-04T14:14:25.865Z,6.90
2019-01-04T14:16:55.284Z,6.90
2019-01-04T14:19:24.788Z,6.90
2019-01-04T14:21:54.207Z,6.90
2019-01-04T14:24:23.623Z,6.90
2019-01-04T14:26:53.025Z,6.90
2019-01-04T14:29:22.438Z,6.90
2019-01-04T14:31:51.849Z,6.90
2019-01-04T14:34:21.249Z,6.90
2019-01-04T14:36:50.738Z,6.90
2019-01-04T14:39:20.179Z,6.80
2019-01-04T14:41:49.584Z,6.90
2019-01-04T14:44:18.988Z,6.90
2019-01-04T14:46:50.703Z,6.80
2019-01-04T14:49:22.404Z,6.70
2019-01-04T14:51:51.868Z,6.90
2019-01-04T14:54:21.280Z,6.90
2019-01-04T14:56:50.690Z,7.00
2019-01-04T14:59:20.077Z,7.00
2019-01-04T15:01:49.490Z,7.00
2019-01-04T15:04:18.987Z,6.80
2019-01-04T15:06:48.413Z,6.80
2019-01-04T15:09:17.976Z,6.80
2019-01-04T15:11:47.373Z,6.90
2019-01-04T15:14:16.840Z,6.90
2019-01-04T15:16:46.256Z,6.50
2019-01-04T15:19:15.784Z,6.90
2019-01-04T15:21:47.284Z,6.80
2019-01-04T15:24:16.790Z,6.80
2019-01-04T15:26:46.224Z,6.90
2019-01-04T15:29:15.681Z,6.90
2019-01-04T15:31:45.278Z,6.70
2019-01-04T15:34:14.798Z,6.60
2019-01-04T15:36:44.256Z,6.60
2019-01-04T15:39:13.694Z,6.60
2019-01-04T15:41:43.144Z,6.60
2019-01-04T15:44:12.678Z,6.50
2019-01-04T15:46:42.086Z,6.50
2019-01-04T15:49:11.614Z,6.60
2019-01-04T15:51:41.018Z,6.80
2019-01-04T15:54:10.440Z,6.60
2019-01-04T15:56:39.837Z,6.50
2019-01-04T15:59:09.383Z,6.50
2019-01-04T16:01:40.869Z,6.50
2019-01-04T16:04:10.281Z,6.50
2019-01-04T16:06:39.741Z,6.50
2019-01-04T16:09:09.161Z,6.50
2019-01-04T16:11:38.569Z,6.60
2019-01-04T16:14:09.048Z,6.70
2019-01-04T16:16:38.520Z,6.80
2019-01-04T16:19:07.950Z,6.80
2019-01-04T16:21:37.401Z,6.80
2019-01-04T16:24:06.944Z,6.80
2019-01-04T16:26:36.515Z,6.90
2019-01-04T16:29:05.949Z,6.90
2019-01-04T16:31:35.442Z,7.00
2019-01-04T16:34:06.542Z,7.00
2019-01-04T16:36:35.974Z,6.90
2019-01-04T16:39:08.102Z,6.80
2019-01-04T16:41:37.529Z,6.90
2019-01-04T16:44:07.304Z,6.80
2019-01-04T16:46:36.955Z,6.80
2019-01-04T16:49:06.450Z,6.80
2019-01-04T16:51:35.860Z,6.90
2019-01-04T16:54:06.668Z,6.90
2019-01-04T16:56:36.071Z,6.80
2019-01-04T16:59:05.582Z,6.80
2019-01-04T17:01:37.259Z,6.90
2019-01-04T17:04:06.781Z,7.00
2019-01-04T17:06:36.285Z,7.00
2019-01-04T17:09:08.261Z,7.00
2019-01-04T17:11:37.756Z,7.00
2019-01-04T17:14:07.158Z,6.90
2019-01-04T17:16:37.802Z,6.90
2019-01-04T17:19:07.278Z,6.90
2019-01-04T17:21:36.690Z,6.90
2019-01-04T17:24:06.090Z,6.90
2019-01-04T17:26:35.532Z,6.90
2019-01-04T17:29:04.969Z,6.90
2019-01-04T17:31:34.416Z,7.50
2019-01-04T17:34:03.898Z,6.80
2019-01-04T17:36:33.342Z,6.80
2019-01-04T17:39:03.047Z,6.90
2019-01-04T17:41:32.473Z,7.00
2019-01-04T17:44:01.974Z,6.90
2019-01-04T17:46:31.376Z,6.90
2019-01-04T17:49:00.815Z,6.90
2019-01-04T17:51:30.271Z,7.00
2019-01-04T17:53:59.803Z,7.00
2019-01-04T17:56:29.235Z,7.00
2019-01-04T17:58:58.926Z,6.90
2019-01-04T18:01:28.647Z,7.40
2019-01-04T18:03:58.224Z,13.70
2019-01-04T18:06:28.777Z,14.40
2019-01-04T18:08:58.682Z,13.80
2019-01-04T18:11:28.396Z,14.00
2019-01-04T18:13:58.230Z,13.40
2019-01-04T18:16:28.018Z,13.80
2019-01-04T18:18:57.889Z,12.10
2019-01-04T18:21:27.710Z,13.80
2019-01-04T18:23:57.428Z,13.80
2019-01-04T18:26:27.256Z,13.90
2019-01-04T18:28:56.995Z,14.10
2019-01-04T18:31:26.426Z,8.50
2019-01-04T18:33:57.942Z,10.60
2019-01-04T18:36:27.710Z,13.60
2019-01-04T18:38:57.476Z,13.50
2019-01-04T18:41:27.156Z,13.70
2019-01-04T18:43:57.143Z,13.30
2019-01-04T18:46:26.698Z,13.50
2019-01-04T18:48:57.343Z,13.00
2019-01-04T18:51:27.169Z,13.50
2019-01-04T18:53:57.111Z,13.00
2019-01-04T18:56:26.941Z,12.70
2019-01-04T18:58:56.678Z,12.70
2019-01-04T19:01:26.376Z,13.00
2019-01-04T19:03:56.332Z,12.60
2019-01-04T19:06:31.112Z,12.30
2019-01-04T19:08:57.821Z,12.30
2019-01-04T19:11:27.664Z,12.20
2019-01-04T19:13:57.077Z,12.50
2019-01-04T19:16:29.281Z,12.30
2019-01-04T19:18:58.754Z,12.50
2019-01-04T19:21:28.187Z,13.00
2019-01-04T19:23:58.044Z,13.00
2019-01-04T19:26:27.859Z,12.60
2019-01-04T19:28:57.694Z,12.60
2019-01-04T19:31:28.608Z,13.00
2019-01-04T19:33:58.037Z,12.40
2019-01-04T19:36:27.476Z,12.90
2019-01-04T19:38:57.316Z,12.40
2019-01-04T19:41:27.154Z,12.50
2019-01-04T19:43:58.777Z,12.50
2019-01-04T19:46:28.419Z,12.40
2019-01-04T19:48:58.053Z,12.30
2019-01-04T19:51:27.708Z,12.20
2019-01-04T19:53:59.118Z,12.50
2019-01-04T19:56:28.883Z,12.50
2019-01-04T19:58:58.688Z,12.50
2019-01-04T20:01:28.659Z,12.50
2019-01-04T20:03:58.473Z,12.20
2019-01-04T20:07:29.695Z,12.10
2019-01-04T20:11:38.774Z,12.30
2019-01-04T20:15:12.859Z,12.20
2019-01-04T20:18:07.291Z,12.60
2019-01-04T20:21:03.166Z,12.40
2019-01-04T20:23:50.961Z,12.70
2019-01-04T20:26:47.024Z,12.50
2019-01-04T20:29:34.599Z,12.40
2019-01-04T20:32:26.101Z,12.40
2019-01-04T20:35:13.711Z,12.60
2019-01-04T20:38:05.329Z,12.50
2019-01-04T20:40:54.050Z,12.90
2019-01-04T20:43:36.635Z,13.00
2019-01-04T20:46:21.430Z,12.80
2019-01-04T20:49:13.148Z,12.70
2019-01-04T20:52:14.167Z,12.60
2019-01-04T20:55:02.874Z,12.50
2019-01-04T20:57:54.004Z,12.50
2019-01-04T21:00:51.851Z,12.50
2019-01-04T21:03:40.352Z,12.50
2019-01-04T21:06:28.952Z,12.50
2019-01-04T21:09:15.966Z,12.80
2019-01-04T21:12:04.651Z,12.50
2019-01-04T21:14:51.966Z,12.50
2019-01-04T21:17:39.847Z,12.50
2019-01-04T21:20:35.603Z,12.50
2019-01-04T21:23:23.156Z,12.10
2019-01-04T21:26:23.779Z,13.00
2019-01-04T21:29:12.482Z,12.50
2019-01-04T21:32:00.395Z,13.10
2019-01-04T21:34:47.770Z,12.50
2019-01-04T21:37:39.306Z,12.50
2019-01-04T21:40:26.896Z,12.50
2019-01-04T21:43:30.937Z,12.60
2019-01-04T21:46:18.582Z,12.40
2019-01-04T21:49:19.568Z,12.50
2019-01-04T21:52:20.279Z,12.30
2019-01-04T21:55:10.004Z,12.40
2019-01-04T21:57:57.485Z,12.30
2019-01-04T22:00:40.761Z,12.20
2019-01-04T22:03:35.528Z,12.20
2019-01-04T22:06:27.250Z,12.10
2019-01-04T22:09:21.779Z,12.10
2019-01-04T22:12:13.412Z,12.20
2019-01-04T22:15:20.376Z,12.50
2019-01-04T22:18:07.877Z,11.90
2019-01-04T22:20:55.293Z,11.90
2019-01-04T22:23:33.161Z,12.00
2019-01-04T22:26:20.306Z,12.10
2019-01-04T22:29:15.374Z,12.10
2019-01-04T22:32:10.292Z,12.20
2019-01-04T22:35:00.828Z,12.20
2019-01-04T22:37:58.436Z,12.20
2019-01-04T22:40:53.152Z,12.00
2019-01-04T22:43:40.416Z,12.20
2019-01-04T22:46:38.767Z,12.20
2019-01-04T22:49:26.157Z,12.20
2019-01-04T22:52:14.485Z,12.10
2019-01-04T22:55:13.446Z,12.00
2019-01-04T22:58:14.272Z,12.20
2019-01-04T23:01:12.203Z,12.00
2019-01-04T23:03:59.787Z,12.00
2019-01-04T23:07:00.531Z,11.90
2019-01-04T23:09:55.150Z,11.90
2019-01-04T23:13:01.857Z,11.80
2019-01-04T23:15:48.729Z,11.80
2019-01-04T23:18:45.957Z,11.80
2019-01-04T23:22:07.382Z,11.70
2019-01-04T23:25:02.283Z,11.70
2019-01-04T23:27:56.982Z,11.70
2019-01-04T23:30:51.844Z,11.70
2019-01-04T23:33:39.150Z,11.60
2019-01-04T23:36:41.734Z,11.50
2019-01-04T23:39:42.141Z,11.50
2019-01-04T23:42:36.818Z,11.50
2019-01-04T23:45:25.872Z,11.50
2019-01-04T23:48:29.386Z,11.50
2019-01-04T23:51:17.999Z,11.40
2019-01-04T23:54:18.457Z,11.50
2019-01-04T23:57:16.013Z,11.40
